createdAt,value
2022-08-25T00:00:47.842Z,21.15
2022-08-25T00:01:47.838Z,21.24
2022-08-25T00:02:55.477Z,21.11
2022-08-25T00:03:48.820Z,21.18
2022-08-25T00:04:53.034Z,21.20
2022-08-25T00:05:48.865Z,21.21
2022-08-25T00:06:47.785Z,21.20
2022-08-25T00:07:47.787Z,21.20
2022-08-25T00:08:47.761Z,21.17
2022-08-25T00:09:47.789Z,21.22
2022-08-25T00:11:00.345Z,21.06
2022-08-25T00:11:48.717Z,21.09
2022-08-25T00:12:47.735Z,21.15
2022-08-25T00:13:47.754Z,21.07
2022-08-25T00:14:47.855Z,21.14
2022-08-25T00:15:47.736Z,21.09
2022-08-25T00:16:47.661Z,21.07
2022-08-25T00:17:47.671Z,21.06
2022-08-25T00:18:47.645Z,21.09
2022-08-25T00:19:47.661Z,21.06
2022-08-25T00:20:48.795Z,20.99
2022-08-25T00:21:47.611Z,21.06
2022-08-25T00:22:48.785Z,21.02
2022-08-25T00:23:47.584Z,21.02
2022-08-25T00:24:47.581Z,21.00
2022-08-25T00:25:47.565Z,21.06
2022-08-25T00:26:47.575Z,21.03
2022-08-25T00:27:47.698Z,21.05
2022-08-25T00:28:47.526Z,21.02
2022-08-25T00:29:47.725Z,20.95
2022-08-25T00:30:47.588Z,20.97
2022-08-25T00:31:47.495Z,21.02
2022-08-25T00:32:55.334Z,20.96
2022-08-25T00:33:49.086Z,20.90
2022-08-25T00:34:47.456Z,20.96
2022-08-25T00:35:47.450Z,20.87
2022-08-25T00:36:47.433Z,20.90
2022-08-25T00:37:47.466Z,20.92
2022-08-25T00:38:47.421Z,20.90
2022-08-25T00:39:47.463Z,20.88
2022-08-25T00:40:47.396Z,20.88
2022-08-25T00:41:47.388Z,20.85
2022-08-25T00:42:47.402Z,20.85
2022-08-25T00:43:47.402Z,20.78
2022-08-25T00:44:47.421Z,20.85
2022-08-25T00:45:47.339Z,20.75
2022-08-25T00:46:47.337Z,20.80
2022-08-25T00:47:47.350Z,20.80
2022-08-25T00:48:47.315Z,20.82
2022-08-25T00:49:47.291Z,20.80
2022-08-25T00:50:47.326Z,20.81
2022-08-25T00:51:47.275Z,20.77
2022-08-25T00:52:47.280Z,20.80
2022-08-25T00:53:47.304Z,20.70
2022-08-25T00:54:47.246Z,20.78
2022-08-25T00:55:47.225Z,20.72
2022-08-25T00:56:47.220Z,20.78
2022-08-25T00:57:47.215Z,20.72
2022-08-25T00:58:47.214Z,20.69
2022-08-25T00:59:47.211Z,20.75
2022-08-25T01:00:47.184Z,20.66
2022-08-25T01:01:48.195Z,20.66
2022-08-25T01:02:47.257Z,20.74
2022-08-25T01:03:47.151Z,20.69
2022-08-25T01:04:48.814Z,20.69
2022-08-25T01:05:47.239Z,20.63
2022-08-25T01:06:47.106Z,20.70
2022-08-25T01:07:47.101Z,20.67
2022-08-25T01:08:47.113Z,20.69
2022-08-25T01:09:47.081Z,20.72
2022-08-25T01:10:47.065Z,20.66
2022-08-25T01:11:47.054Z,20.67
2022-08-25T01:12:47.058Z,20.59
2022-08-25T01:13:47.025Z,20.72
2022-08-25T01:14:47.026Z,20.69
2022-08-25T01:15:47.096Z,20.69
2022-08-25T01:16:47.003Z,20.62
2022-08-25T01:17:49.722Z,20.59
2022-08-25T01:18:47.102Z,20.63
2022-08-25T01:19:46.958Z,20.59
2022-08-25T01:20:46.960Z,20.63
2022-08-25T01:21:46.938Z,20.62
2022-08-25T01:22:50.866Z,20.65
2022-08-25T01:23:47.933Z,20.65
2022-08-25T01:24:46.901Z,20.59
2022-08-25T01:25:46.914Z,20.58
2022-08-25T01:26:46.901Z,20.51
2022-08-25T01:27:46.888Z,20.60
2022-08-25T01:28:46.881Z,20.55
2022-08-25T01:29:46.855Z,20.52
2022-08-25T01:30:46.920Z,20.50
2022-08-25T01:31:46.839Z,20.52
2022-08-25T01:32:46.845Z,20.51
2022-08-25T01:33:46.827Z,20.55
2022-08-25T01:34:46.794Z,20.55
2022-08-25T01:35:46.968Z,20.48
2022-08-25T01:36:46.783Z,20.47
2022-08-25T01:37:46.785Z,20.52
2022-08-25T01:38:46.782Z,20.52
2022-08-25T01:39:46.970Z,20.51
2022-08-25T01:40:46.739Z,20.52
2022-08-25T01:41:46.756Z,20.51
2022-08-25T01:42:46.717Z,20.56
2022-08-25T01:43:46.736Z,20.47
2022-08-25T01:44:46.681Z,20.50
2022-08-25T01:45:46.747Z,20.50
2022-08-25T01:46:46.672Z,20.44
2022-08-25T01:47:46.663Z,20.32
2022-08-25T01:48:46.676Z,20.41
2022-08-25T01:49:46.647Z,20.51
2022-08-25T01:50:46.614Z,20.41
2022-08-25T01:51:46.607Z,20.37
2022-08-25T01:52:46.595Z,20.40
2022-08-25T01:53:46.611Z,20.39
2022-08-25T01:54:46.609Z,20.41
2022-08-25T01:55:46.563Z,20.34
2022-08-25T01:56:46.550Z,20.39
2022-08-25T01:57:46.542Z,20.39
2022-08-25T01:58:46.566Z,20.43
2022-08-25T01:59:46.536Z,20.41
2022-08-25T02:00:46.512Z,20.34
2022-08-25T02:01:46.561Z,20.36
2022-08-25T02:02:46.523Z,20.31
2022-08-25T02:03:48.421Z,20.34
2022-08-25T02:04:46.469Z,20.32
2022-08-25T02:05:48.081Z,20.29
2022-08-25T02:06:46.453Z,20.36
2022-08-25T02:07:46.584Z,20.31
2022-08-25T02:08:46.430Z,20.31
2022-08-25T02:09:46.427Z,20.36
2022-08-25T02:10:46.418Z,20.32
2022-08-25T02:11:46.614Z,20.34
2022-08-25T02:12:47.244Z,20.32
2022-08-25T02:13:46.375Z,20.29
2022-08-25T02:14:46.349Z,20.34
2022-08-25T02:15:46.352Z,20.32
2022-08-25T02:16:52.833Z,20.31
2022-08-25T02:17:46.315Z,20.22
2022-08-25T02:18:46.311Z,20.26
2022-08-25T02:19:46.296Z,20.25
2022-08-25T02:20:46.292Z,20.31
2022-08-25T02:21:46.302Z,20.25
2022-08-25T02:22:56.920Z,20.21
2022-08-25T02:23:47.261Z,20.25
2022-08-25T02:24:46.365Z,20.22
2022-08-25T02:25:46.231Z,20.26
2022-08-25T02:26:46.257Z,20.21
2022-08-25T02:27:46.218Z,20.18
2022-08-25T02:28:46.419Z,20.24
2022-08-25T02:29:46.186Z,20.16
2022-08-25T02:30:46.231Z,20.21
2022-08-25T02:31:46.211Z,20.29
2022-08-25T02:32:46.165Z,20.18
2022-08-25T02:33:46.142Z,20.19
2022-08-25T02:34:46.123Z,20.19
2022-08-25T02:35:46.127Z,20.21
2022-08-25T02:36:46.282Z,20.21
2022-08-25T02:37:46.105Z,20.25
2022-08-25T02:38:46.088Z,20.21
2022-08-25T02:39:46.133Z,20.21
2022-08-25T02:40:55.224Z,20.10
2022-08-25T02:41:46.272Z,20.25
2022-08-25T02:42:47.742Z,20.11
2022-08-25T02:43:46.040Z,20.13
2022-08-25T02:44:46.009Z,20.10
2022-08-25T02:45:48.532Z,20.18
2022-08-25T02:46:45.989Z,20.10
2022-08-25T02:47:45.996Z,20.09
2022-08-25T02:48:45.971Z,20.03
2022-08-25T02:49:45.963Z,20.10
2022-08-25T02:50:45.976Z,20.06
2022-08-25T02:51:45.937Z,20.13
2022-08-25T02:52:45.924Z,20.14
2022-08-25T02:53:45.915Z,20.07
2022-08-25T02:54:45.926Z,20.09
2022-08-25T02:55:45.903Z,20.10
2022-08-25T02:56:46.613Z,20.07
2022-08-25T02:57:45.873Z,20.07
2022-08-25T02:58:45.858Z,20.07
2022-08-25T02:59:45.856Z,20.07
2022-08-25T03:00:46.249Z,20.10
2022-08-25T03:01:45.833Z,19.95
2022-08-25T03:02:45.821Z,20.10
2022-08-25T03:03:45.836Z,20.02
2022-08-25T03:04:45.822Z,19.96
2022-08-25T03:05:45.804Z,20.07
2022-08-25T03:06:45.814Z,20.00
2022-08-25T03:07:45.765Z,20.04
2022-08-25T03:08:45.799Z,20.00
2022-08-25T03:09:45.750Z,19.95
2022-08-25T03:10:45.737Z,19.99
2022-08-25T03:11:45.727Z,19.91
2022-08-25T03:12:45.708Z,19.89
2022-08-25T03:13:45.773Z,19.85
2022-08-25T03:14:45.720Z,19.85
2022-08-25T03:15:49.393Z,19.91
2022-08-25T03:16:46.300Z,19.92
2022-08-25T03:17:45.960Z,19.85
2022-08-25T03:18:45.640Z,19.91
2022-08-25T03:19:47.770Z,19.85
2022-08-25T03:20:45.621Z,19.86
2022-08-25T03:21:45.609Z,19.91
2022-08-25T03:22:45.598Z,19.95
2022-08-25T03:23:45.591Z,19.84
2022-08-25T03:24:45.593Z,19.91
2022-08-25T03:25:45.565Z,19.91
2022-08-25T03:26:45.549Z,19.89
2022-08-25T03:27:45.542Z,19.88
2022-08-25T03:28:45.562Z,19.85
2022-08-25T03:29:45.553Z,19.82
2022-08-25T03:30:45.512Z,19.82
2022-08-25T03:31:45.562Z,19.82
2022-08-25T03:32:45.489Z,19.82
2022-08-25T03:33:45.482Z,19.73
2022-08-25T03:34:45.925Z,19.73
2022-08-25T03:35:45.453Z,19.73
2022-08-25T03:36:45.451Z,19.77
2022-08-25T03:37:45.437Z,19.71
2022-08-25T03:38:45.425Z,19.63
2022-08-25T03:39:51.589Z,19.76
2022-08-25T03:40:45.458Z,19.74
2022-08-25T03:41:45.394Z,19.69
2022-08-25T03:42:45.400Z,19.81
2022-08-25T03:43:45.407Z,19.71
2022-08-25T03:44:48.633Z,19.66
2022-08-25T03:45:45.501Z,19.69
2022-08-25T03:46:45.328Z,19.64
2022-08-25T03:47:46.148Z,19.71
2022-08-25T03:48:45.331Z,19.71
2022-08-25T03:49:45.341Z,19.67
2022-08-25T03:50:50.605Z,19.73
2022-08-25T03:51:46.445Z,19.67
2022-08-25T03:52:45.293Z,19.66
2022-08-25T03:53:45.267Z,19.64
2022-08-25T03:54:45.238Z,19.67
2022-08-25T03:55:45.242Z,19.66
2022-08-25T03:56:45.220Z,19.66
2022-08-25T03:57:59.465Z,19.69
2022-08-25T03:58:45.197Z,19.67
2022-08-25T03:59:45.193Z,19.64
2022-08-25T04:00:45.237Z,19.63
2022-08-25T04:01:45.316Z,19.62
2022-08-25T04:02:45.278Z,19.69
2022-08-25T04:03:45.145Z,19.62
2022-08-25T04:04:45.162Z,19.62
2022-08-25T04:05:45.126Z,19.63
2022-08-25T04:06:45.123Z,19.63
2022-08-25T04:07:45.119Z,19.63
2022-08-25T04:08:45.649Z,19.58
2022-08-25T04:10:37.827Z,19.63
2022-08-25T04:11:37.700Z,19.66
2022-08-25T04:12:37.681Z,19.64
2022-08-25T04:13:37.697Z,19.63
2022-08-25T04:14:37.643Z,19.58
2022-08-25T04:15:37.650Z,19.63
2022-08-25T04:16:37.725Z,19.67
2022-08-25T04:17:37.611Z,19.69
2022-08-25T04:18:37.598Z,19.70
2022-08-25T04:19:37.669Z,19.62
2022-08-25T04:20:37.602Z,19.66
2022-08-25T04:21:37.833Z,19.62
2022-08-25T04:22:37.577Z,19.67
2022-08-25T04:23:38.174Z,19.63
2022-08-25T04:24:37.588Z,19.64
2022-08-25T04:25:37.857Z,19.69
2022-08-25T04:26:37.518Z,19.58
2022-08-25T04:27:37.900Z,19.56
2022-08-25T04:28:37.487Z,19.64
2022-08-25T04:29:37.477Z,19.63
2022-08-25T04:30:37.477Z,19.56
2022-08-25T04:31:37.528Z,19.67
2022-08-25T04:32:37.534Z,19.62
2022-08-25T04:33:37.449Z,19.67
2022-08-25T04:34:38.086Z,19.70
2022-08-25T04:35:37.449Z,19.66
2022-08-25T04:36:37.612Z,19.67
2022-08-25T04:37:37.430Z,19.66
2022-08-25T04:38:37.509Z,19.54
2022-08-25T04:39:38.092Z,19.70
2022-08-25T04:40:38.101Z,19.63
2022-08-25T04:41:37.340Z,19.64
2022-08-25T04:42:37.333Z,19.64
2022-08-25T04:43:37.317Z,19.62
2022-08-25T04:44:37.599Z,19.58
2022-08-25T04:45:37.339Z,19.69
2022-08-25T04:46:37.308Z,19.63
2022-08-25T04:47:37.292Z,19.58
2022-08-25T04:48:37.262Z,19.69
2022-08-25T04:49:37.257Z,19.63
2022-08-25T04:50:37.240Z,19.67
2022-08-25T04:51:41.805Z,19.71
2022-08-25T04:52:37.220Z,19.70
2022-08-25T04:53:37.205Z,19.74
2022-08-25T04:54:39.431Z,19.69
2022-08-25T04:55:37.262Z,19.66
2022-08-25T04:56:37.182Z,19.74
2022-08-25T04:57:37.474Z,19.69
2022-08-25T04:58:37.158Z,19.84
2022-08-25T04:59:37.142Z,19.89
2022-08-25T05:00:37.203Z,19.84
2022-08-25T05:01:37.210Z,19.88
2022-08-25T05:02:37.118Z,19.88
2022-08-25T05:03:37.313Z,19.86
2022-08-25T05:04:37.168Z,20.07
2022-08-25T05:05:37.074Z,20.22
2022-08-25T05:06:37.067Z,20.44
2022-08-25T05:07:37.051Z,20.84
2022-08-25T05:08:37.973Z,20.96
2022-08-25T05:09:37.028Z,20.97
2022-08-25T05:10:37.023Z,21.07
2022-08-25T05:11:37.010Z,21.17
2022-08-25T05:12:37.026Z,21.30
2022-08-25T05:13:36.986Z,21.36
2022-08-25T05:14:37.131Z,21.29
2022-08-25T05:15:36.962Z,21.40
2022-08-25T05:16:37.003Z,21.52
2022-08-25T05:17:36.944Z,21.62
2022-08-25T05:18:37.134Z,21.69
2022-08-25T05:19:36.923Z,21.76
2022-08-25T05:20:36.911Z,21.79
2022-08-25T05:21:36.934Z,21.83
2022-08-25T05:22:36.887Z,21.98
2022-08-25T05:23:36.873Z,21.98
2022-08-25T05:24:36.867Z,22.00
2022-08-25T05:25:36.850Z,22.00
2022-08-25T05:26:36.860Z,22.10
2022-08-25T05:27:36.848Z,22.22
2022-08-25T05:28:36.829Z,22.14
2022-08-25T05:29:36.858Z,21.95
2022-08-25T05:30:36.800Z,21.82
2022-08-25T05:31:41.748Z,21.79
2022-08-25T05:32:37.813Z,21.83
2022-08-25T05:33:36.768Z,21.69
2022-08-25T05:34:36.751Z,21.72
2022-08-25T05:35:36.777Z,21.82
2022-08-25T05:36:39.148Z,21.91
2022-08-25T05:37:36.725Z,21.96
2022-08-25T05:38:36.712Z,21.93
2022-08-25T05:39:36.697Z,21.96
2022-08-25T05:40:36.702Z,21.73
2022-08-25T05:41:56.262Z,21.58
2022-08-25T05:42:36.665Z,21.40
2022-08-25T05:43:36.652Z,21.48
2022-08-25T05:44:36.645Z,21.60
2022-08-25T05:45:36.658Z,21.52
2022-08-25T05:46:37.143Z,21.69
2022-08-25T05:47:36.619Z,21.67
2022-08-25T05:48:36.600Z,21.57
2022-08-25T05:49:36.586Z,21.50
2022-08-25T05:50:36.591Z,21.57
2022-08-25T05:51:36.584Z,21.57
2022-08-25T05:52:37.108Z,21.64
2022-08-25T05:53:36.541Z,21.79
2022-08-25T05:54:36.528Z,21.83
2022-08-25T05:55:36.521Z,21.80
2022-08-25T05:56:36.511Z,21.93
2022-08-25T05:57:36.531Z,21.80
2022-08-25T05:58:36.486Z,21.79
2022-08-25T05:59:36.473Z,21.91
2022-08-25T06:00:36.579Z,21.89
2022-08-25T06:01:36.454Z,21.64
2022-08-25T06:02:36.445Z,21.51
2022-08-25T06:03:36.501Z,21.64
2022-08-25T06:04:39.577Z,21.69
2022-08-25T06:05:37.114Z,21.69
2022-08-25T06:06:36.398Z,21.66
2022-08-25T06:07:36.383Z,21.61
2022-08-25T06:08:39.141Z,21.51
2022-08-25T06:09:36.693Z,21.57
2022-08-25T06:10:36.353Z,21.50
2022-08-25T06:11:36.636Z,21.57
2022-08-25T06:12:36.350Z,21.62
2022-08-25T06:13:36.324Z,21.73
2022-08-25T06:14:36.312Z,21.72
2022-08-25T06:15:36.300Z,21.57
2022-08-25T06:16:36.420Z,21.50
2022-08-25T06:17:36.281Z,21.62
2022-08-25T06:18:36.287Z,21.70
2022-08-25T06:19:37.122Z,21.88
2022-08-25T06:20:37.247Z,22.00
2022-08-25T06:21:36.231Z,22.10
2022-08-25T06:22:37.123Z,22.08
2022-08-25T06:23:36.238Z,22.02
2022-08-25T06:24:36.206Z,22.29
2022-08-25T06:25:36.195Z,22.13
2022-08-25T06:26:36.273Z,22.18
2022-08-25T06:27:36.165Z,22.33
2022-08-25T06:28:36.174Z,22.22
2022-08-25T06:29:36.145Z,22.17
2022-08-25T06:30:36.135Z,22.10
2022-08-25T06:31:36.176Z,22.11
2022-08-25T06:32:36.109Z,22.06
2022-08-25T06:33:36.115Z,22.11
2022-08-25T06:34:36.090Z,22.06
2022-08-25T06:35:36.077Z,21.96
2022-08-25T06:36:36.071Z,21.95
2022-08-25T06:37:36.055Z,22.02
2022-08-25T06:38:36.106Z,22.00
2022-08-25T06:39:36.299Z,22.10
2022-08-25T06:40:36.058Z,22.11
2022-08-25T06:41:37.014Z,22.17
2022-08-25T06:42:36.007Z,22.29
2022-08-25T06:43:36.014Z,22.35
2022-08-25T06:44:35.987Z,22.36
2022-08-25T06:45:36.248Z,22.47
2022-08-25T06:46:37.107Z,22.50
2022-08-25T06:47:35.973Z,22.50
2022-08-25T06:48:35.957Z,22.33
2022-08-25T06:49:36.348Z,22.18
2022-08-25T06:50:35.923Z,21.96
2022-08-25T06:51:36.125Z,21.96
2022-08-25T06:52:35.897Z,21.88
2022-08-25T06:53:36.390Z,21.83
2022-08-25T06:54:35.937Z,21.89
2022-08-25T06:55:35.859Z,21.73
2022-08-25T06:56:36.635Z,21.75
2022-08-25T06:57:35.940Z,21.88
2022-08-25T06:58:35.865Z,21.85
2022-08-25T06:59:35.822Z,21.83
2022-08-25T07:00:36.683Z,21.79
2022-08-25T07:01:35.960Z,21.89
2022-08-25T07:02:35.813Z,21.91
2022-08-25T07:03:36.027Z,21.96
2022-08-25T07:04:35.765Z,21.92
2022-08-25T07:05:43.452Z,21.96
2022-08-25T07:06:36.776Z,22.06
2022-08-25T07:07:44.132Z,21.91
2022-08-25T07:08:36.741Z,21.96
2022-08-25T07:09:39.052Z,22.06
2022-08-25T07:10:35.698Z,22.10
2022-08-25T07:11:36.638Z,22.00
2022-08-25T07:12:35.718Z,22.11
2022-08-25T07:13:35.666Z,22.11
2022-08-25T07:14:35.653Z,22.11
2022-08-25T07:15:35.743Z,22.10
2022-08-25T07:16:35.714Z,22.02
2022-08-25T07:17:35.624Z,22.13
2022-08-25T07:18:35.633Z,22.25
2022-08-25T07:19:35.606Z,22.36
2022-08-25T07:20:35.590Z,22.45
2022-08-25T07:21:35.966Z,22.48
2022-08-25T07:22:35.567Z,22.65
2022-08-25T07:23:35.579Z,22.68
2022-08-25T07:24:35.541Z,22.75
2022-08-25T07:25:35.528Z,22.88
2022-08-25T07:26:38.235Z,23.00
2022-08-25T07:27:35.506Z,23.15
2022-08-25T07:28:36.104Z,23.27
2022-08-25T07:29:35.486Z,23.32
2022-08-25T07:30:36.470Z,23.37
2022-08-25T07:31:35.541Z,23.44
2022-08-25T07:32:35.538Z,23.48
2022-08-25T07:33:35.455Z,23.47
2022-08-25T07:34:35.435Z,23.51
2022-08-25T07:35:37.466Z,23.62
2022-08-25T07:36:35.412Z,23.54
2022-08-25T07:37:50.294Z,23.68
2022-08-25T07:38:37.509Z,23.62
2022-08-25T07:39:35.377Z,23.55
2022-08-25T07:40:35.432Z,23.68
2022-08-25T07:41:35.350Z,23.56
2022-08-25T07:42:35.345Z,23.51
2022-08-25T07:43:35.347Z,23.44
2022-08-25T07:44:35.321Z,23.54
2022-08-25T07:45:36.147Z,23.37
2022-08-25T07:46:38.042Z,23.21
2022-08-25T07:47:35.314Z,23.25
2022-08-25T07:48:35.280Z,23.34
2022-08-25T07:49:35.866Z,23.34
2022-08-25T07:50:35.257Z,23.25
2022-08-25T07:51:35.692Z,23.23
2022-08-25T07:52:35.237Z,23.12
2022-08-25T07:53:35.295Z,23.31
2022-08-25T07:54:37.596Z,23.47
2022-08-25T07:55:36.743Z,23.58
2022-08-25T07:56:35.194Z,23.50
2022-08-25T07:57:35.174Z,23.58
2022-08-25T07:58:35.167Z,23.69
2022-08-25T07:59:39.952Z,23.81
2022-08-25T08:00:36.163Z,24.03
2022-08-25T08:01:35.197Z,24.03
2022-08-25T08:02:35.158Z,24.14
2022-08-25T08:03:50.112Z,24.28
2022-08-25T08:04:36.099Z,24.58
2022-08-25T08:05:35.587Z,24.78
2022-08-25T08:06:35.075Z,24.98
2022-08-25T08:07:43.035Z,24.89
2022-08-25T08:08:36.453Z,24.69
2022-08-25T08:09:35.050Z,24.50
2022-08-25T08:10:54.093Z,24.38
2022-08-25T08:11:36.028Z,24.36
2022-08-25T08:12:35.014Z,24.39
2022-08-25T08:13:39.333Z,24.42
2022-08-25T08:14:35.993Z,24.58
2022-08-25T08:15:35.004Z,24.77
2022-08-25T08:16:35.061Z,24.93
2022-08-25T08:17:34.959Z,25.08
2022-08-25T08:18:34.947Z,25.31
2022-08-25T08:19:34.976Z,25.43
2022-08-25T08:20:42.919Z,25.68
2022-08-25T08:21:35.915Z,25.95
2022-08-25T08:22:34.912Z,25.98
2022-08-25T08:23:34.902Z,26.33
2022-08-25T08:24:44.575Z,26.89
2022-08-25T08:25:36.198Z,27.40
2022-08-25T08:26:57.622Z,27.54
2022-08-25T08:27:35.851Z,27.51
2022-08-25T08:28:34.841Z,27.35
2022-08-25T08:29:34.854Z,27.48
2022-08-25T08:30:34.819Z,27.39
2022-08-25T08:31:34.879Z,27.12
2022-08-25T08:32:59.597Z,27.26
2022-08-25T08:33:40.958Z,28.05
2022-08-25T08:34:35.797Z,28.45
2022-08-25T08:35:34.771Z,29.27
2022-08-25T08:36:34.750Z,29.59
2022-08-25T08:37:34.743Z,29.72
2022-08-25T08:38:35.070Z,30.05
2022-08-25T08:39:34.733Z,29.35
2022-08-25T08:40:34.790Z,28.67
2022-08-25T08:41:48.956Z,27.77
2022-08-25T08:42:35.736Z,27.54
2022-08-25T08:43:34.680Z,27.20
2022-08-25T08:44:35.639Z,26.73
2022-08-25T08:45:43.805Z,26.48
2022-08-25T08:46:34.707Z,26.33
2022-08-25T08:47:34.632Z,26.10
2022-08-25T08:48:34.619Z,26.02
2022-08-25T08:49:34.612Z,25.72
2022-08-25T08:50:34.646Z,25.78
2022-08-25T08:51:34.614Z,26.19
2022-08-25T08:52:34.577Z,26.33
2022-08-25T08:53:34.578Z,26.43
2022-08-25T08:54:34.554Z,26.51
2022-08-25T08:55:34.719Z,26.48
2022-08-25T08:56:34.531Z,26.88
2022-08-25T08:57:34.541Z,27.11
2022-08-25T08:58:34.524Z,27.27
2022-08-25T08:59:34.524Z,27.55
2022-08-25T09:00:34.511Z,27.87
2022-08-25T09:01:34.605Z,28.01
2022-08-25T09:02:39.149Z,27.90
2022-08-25T09:03:36.175Z,27.74
2022-08-25T09:04:34.446Z,27.52
2022-08-25T09:05:38.855Z,27.39
2022-08-25T09:06:35.424Z,27.37
2022-08-25T09:07:34.416Z,27.33
2022-08-25T09:08:34.403Z,27.33
2022-08-25T09:09:35.730Z,27.35
2022-08-25T09:10:34.380Z,27.03
2022-08-25T09:11:34.387Z,26.66
2022-08-25T09:12:34.367Z,26.41
2022-08-25T09:13:34.351Z,26.28
2022-08-25T09:14:34.350Z,26.29
2022-08-25T09:15:41.149Z,26.43
2022-08-25T09:16:35.388Z,26.63
2022-08-25T09:17:34.309Z,26.81
2022-08-25T09:18:36.788Z,27.00
2022-08-25T09:19:35.284Z,27.27
2022-08-25T09:20:34.361Z,27.77
2022-08-25T09:21:34.284Z,28.66
2022-08-25T09:22:36.179Z,28.51
2022-08-25T09:23:34.239Z,28.02
2022-08-25T09:24:34.227Z,27.85
2022-08-25T09:25:52.332Z,27.67
2022-08-25T09:26:35.314Z,27.52
2022-08-25T09:27:34.201Z,27.42
2022-08-25T09:28:34.182Z,27.05
2022-08-25T09:29:34.175Z,26.95
2022-08-25T09:30:34.168Z,26.92
2022-08-25T09:31:34.246Z,27.03
2022-08-25T09:32:34.160Z,26.99
2022-08-25T09:33:35.701Z,26.88
2022-08-25T09:34:34.123Z,26.56
2022-08-25T09:35:34.112Z,26.48
2022-08-25T09:36:37.380Z,26.48
2022-08-25T09:37:34.233Z,26.29
2022-08-25T09:38:34.077Z,25.91
2022-08-25T09:39:34.157Z,25.95
2022-08-25T09:40:34.158Z,26.09
2022-08-25T09:41:34.045Z,26.44
2022-08-25T09:42:34.058Z,26.33
2022-08-25T09:43:34.022Z,26.51
2022-08-25T09:44:34.012Z,27.18
2022-08-25T09:45:34.000Z,27.48
2022-08-25T09:46:34.053Z,27.98
2022-08-25T09:47:33.980Z,29.56
2022-08-25T09:48:37.757Z,31.33
2022-08-25T09:49:34.956Z,32.36
2022-08-25T09:50:35.021Z,33.15
2022-08-25T09:51:38.039Z,33.89
2022-08-25T09:52:34.927Z,33.64
2022-08-25T09:53:34.118Z,33.05
2022-08-25T09:54:44.236Z,32.64
2022-08-25T09:55:34.893Z,32.90
2022-08-25T09:56:34.017Z,34.16
2022-08-25T09:57:33.879Z,34.58
2022-08-25T09:58:33.861Z,33.57
2022-08-25T09:59:35.065Z,32.75
2022-08-25T10:00:33.864Z,33.53
2022-08-25T10:01:34.937Z,33.37
2022-08-25T10:02:33.829Z,33.43
2022-08-25T10:03:36.477Z,33.89
2022-08-25T10:04:34.181Z,33.32
2022-08-25T10:05:33.840Z,33.19
2022-08-25T10:06:33.780Z,33.81
2022-08-25T10:07:34.705Z,33.32
2022-08-25T10:08:33.763Z,33.34
2022-08-25T10:09:33.751Z,34.16
2022-08-25T10:10:33.757Z,34.05
2022-08-25T10:11:33.793Z,34.13
2022-08-25T10:12:33.723Z,33.77
2022-08-25T10:13:36.384Z,33.22
2022-08-25T10:14:33.702Z,32.03
2022-08-25T10:15:33.775Z,30.97
2022-08-25T10:16:35.611Z,31.52
2022-08-25T10:17:33.769Z,33.01
2022-08-25T10:18:33.661Z,34.38
2022-08-25T10:19:33.667Z,35.04
2022-08-25T10:20:35.339Z,35.55
2022-08-25T10:21:33.630Z,35.33
2022-08-25T10:22:33.616Z,35.80
2022-08-25T10:23:33.609Z,36.14
2022-08-25T10:24:33.857Z,36.95
2022-08-25T10:25:33.587Z,37.07
2022-08-25T10:26:35.129Z,37.39
2022-08-25T10:27:33.574Z,37.63
2022-08-25T10:28:33.634Z,37.01
2022-08-25T10:29:33.572Z,36.35
2022-08-25T10:30:33.576Z,35.66
2022-08-25T10:31:34.847Z,34.97
2022-08-25T10:32:33.534Z,34.64
2022-08-25T10:33:33.513Z,34.08
2022-08-25T10:34:35.694Z,33.77
2022-08-25T10:35:33.493Z,34.40
2022-08-25T10:36:33.484Z,34.85
2022-08-25T10:37:33.495Z,35.74
2022-08-25T10:38:36.066Z,35.14
2022-08-25T10:39:36.248Z,33.76
2022-08-25T10:40:33.603Z,32.85
2022-08-25T10:41:33.432Z,32.59
2022-08-25T10:42:33.423Z,32.53
2022-08-25T10:43:33.413Z,33.01
2022-08-25T10:44:33.403Z,32.65
2022-08-25T10:45:33.522Z,31.99
2022-08-25T10:46:33.482Z,31.93
2022-08-25T10:47:33.371Z,32.43
2022-08-25T10:48:33.361Z,33.09
2022-08-25T10:49:33.351Z,33.81
2022-08-25T10:50:33.358Z,33.46
2022-08-25T10:51:33.333Z,33.62
2022-08-25T10:52:33.324Z,34.18
2022-08-25T10:53:33.310Z,34.40
2022-08-25T10:54:33.297Z,35.52
2022-08-25T10:55:33.310Z,35.31
2022-08-25T10:56:34.283Z,35.18
2022-08-25T10:57:33.268Z,34.50
2022-08-25T10:58:33.261Z,34.58
2022-08-25T10:59:33.269Z,35.00
2022-08-25T11:00:33.269Z,35.64
2022-08-25T11:01:42.925Z,35.51
2022-08-25T11:02:34.221Z,34.20
2022-08-25T11:03:35.350Z,33.22
2022-08-25T11:04:33.224Z,33.77
2022-08-25T11:05:33.275Z,32.96
2022-08-25T11:06:33.178Z,32.86
2022-08-25T11:07:33.176Z,32.46
2022-08-25T11:08:33.159Z,32.33
2022-08-25T11:09:33.176Z,32.78
2022-08-25T11:10:33.148Z,32.86
2022-08-25T11:11:33.247Z,33.02
2022-08-25T11:12:33.143Z,34.10
2022-08-25T11:13:33.111Z,34.62
2022-08-25T11:14:35.396Z,34.61
2022-08-25T11:15:33.092Z,33.92
2022-08-25T11:16:33.108Z,32.86
2022-08-25T11:17:33.268Z,33.09
2022-08-25T11:18:33.095Z,33.17
2022-08-25T11:19:33.703Z,33.74
2022-08-25T11:20:33.041Z,34.18
2022-08-25T11:21:35.928Z,34.97
2022-08-25T11:22:33.025Z,34.89
2022-08-25T11:23:33.037Z,33.53
2022-08-25T11:24:33.009Z,33.32
2022-08-25T11:25:32.996Z,33.46
2022-08-25T11:26:36.612Z,34.17
2022-08-25T11:27:33.002Z,34.52
2022-08-25T11:28:32.960Z,33.74
2022-08-25T11:29:32.952Z,33.34
2022-08-25T11:30:32.981Z,33.83
2022-08-25T11:31:32.933Z,34.10
2022-08-25T11:32:32.924Z,34.18
2022-08-25T11:33:32.944Z,34.70
2022-08-25T11:34:32.904Z,34.47
2022-08-25T11:35:32.898Z,33.49
2022-08-25T11:36:33.147Z,33.08
2022-08-25T11:37:32.878Z,33.32
2022-08-25T11:38:32.882Z,33.42
2022-08-25T11:39:34.385Z,33.40
2022-08-25T11:40:32.901Z,33.47
2022-08-25T11:41:32.837Z,33.09
2022-08-25T11:42:32.821Z,33.17
2022-08-25T11:43:35.916Z,32.90
2022-08-25T11:44:32.802Z,32.93
2022-08-25T11:45:32.801Z,32.80
2022-08-25T11:46:32.841Z,31.87
2022-08-25T11:47:33.078Z,31.28
2022-08-25T11:48:32.780Z,31.15
2022-08-25T11:49:32.774Z,31.37
2022-08-25T11:50:32.742Z,31.97
2022-08-25T11:51:33.812Z,32.49
2022-08-25T11:52:32.722Z,32.30
2022-08-25T11:53:32.879Z,32.19
2022-08-25T11:54:32.720Z,32.48
2022-08-25T11:55:32.748Z,32.48
2022-08-25T11:56:32.789Z,32.03
2022-08-25T11:57:32.675Z,31.49
2022-08-25T11:58:32.668Z,31.03
2022-08-25T11:59:32.694Z,30.69
2022-08-25T12:00:32.646Z,30.46
2022-08-25T12:01:32.650Z,30.65
2022-08-25T12:02:32.624Z,31.07
2022-08-25T12:03:32.623Z,31.27
2022-08-25T12:04:32.913Z,30.77
2022-08-25T12:05:32.626Z,30.53
2022-08-25T12:06:32.583Z,30.73
2022-08-25T12:07:32.575Z,30.63
2022-08-25T12:08:32.789Z,30.53
2022-08-25T12:09:32.553Z,30.51
2022-08-25T12:10:32.643Z,30.96
2022-08-25T12:11:32.536Z,31.51
2022-08-25T12:12:32.527Z,31.58
2022-08-25T12:13:32.514Z,32.14
2022-08-25T12:14:32.546Z,32.51
2022-08-25T12:15:32.498Z,32.73
2022-08-25T12:16:32.565Z,32.86
2022-08-25T12:17:32.476Z,33.12
2022-08-25T12:18:32.491Z,33.11
2022-08-25T12:19:32.562Z,33.00
2022-08-25T12:20:32.449Z,32.93
2022-08-25T12:21:32.440Z,33.05
2022-08-25T12:22:32.428Z,33.08
2022-08-25T12:23:32.456Z,32.85
2022-08-25T12:24:32.419Z,32.70
2022-08-25T12:25:33.960Z,32.46
2022-08-25T12:26:32.391Z,32.53
2022-08-25T12:27:33.525Z,32.85
2022-08-25T12:28:35.228Z,33.08
2022-08-25T12:29:32.360Z,33.14
2022-08-25T12:30:32.414Z,33.27
2022-08-25T12:31:32.736Z,33.12
2022-08-25T12:32:32.331Z,33.14
2022-08-25T12:33:36.275Z,32.96
2022-08-25T12:34:32.315Z,32.90
2022-08-25T12:35:32.311Z,32.96
2022-08-25T12:36:32.568Z,32.64
2022-08-25T12:37:32.299Z,32.46
2022-08-25T12:38:32.303Z,31.93
2022-08-25T12:39:32.269Z,31.56
2022-08-25T12:40:32.398Z,31.28
2022-08-25T12:41:33.737Z,30.88
2022-08-25T12:42:32.471Z,30.40
2022-08-25T12:43:33.327Z,30.10
2022-08-25T12:44:33.216Z,29.95
2022-08-25T12:45:32.378Z,29.81
2022-08-25T12:46:32.219Z,29.73
2022-08-25T12:47:32.204Z,29.68
2022-08-25T12:48:32.177Z,30.03
2022-08-25T12:49:32.168Z,30.24
2022-08-25T12:50:32.174Z,30.51
2022-08-25T12:51:32.309Z,30.63
2022-08-25T12:52:32.136Z,30.28
2022-08-25T12:53:32.141Z,30.23